Time;durP1;ratioP1;P1;durP2;ratioP2;P2;SDS_P1;SDS_P2;PMS_P1;PMS_P2;Temp;Humidity;BMP_temperature;BMP_pressure;BME280_temperature;BME280_humidity;BME280_pressure;Samples;Min_cycle;Max_cycle;Signal;HPM_P1;HPM_P2
2020/12/30 00:00:10;;;;;;;7.03;6.23;;;;;;;-1.92;100.00;96352.25;5015830;28;20621;-68
2020/12/30 00:02:38;;;;;;;7.40;6.73;;;;;;;-1.81;100.00;96359.19;5012487;28;20228;-68
2020/12/30 00:05:06;;;;;;;6.80;6.20;;;;;;;-1.72;100.00;96361.94;5006708;28;20197;-67
2020/12/30 00:07:33;;;;;;;7.50;5.93;;;;;;;-1.60;100.00;96363.56;5017100;28;20208;-67
2020/12/30 00:10:02;;;;;;;6.00;5.40;;;;;;;-1.61;100.00;96364.50;5011910;28;20216;-67
2020/12/30 00:12:29;;;;;;;6.83;5.60;;;;;;;-1.63;100.00;96361.22;5012090;28;20229;-67
2020/12/30 00:14:57;;;;;;;6.70;6.17;;;;;;;-1.57;100.00;96371.09;5005563;28;20232;-68
2020/12/30 00:17:24;;;;;;;6.83;5.50;;;;;;;-1.51;100.00;96367.97;5013811;28;20248;-67
2020/12/30 00:19:51;;;;;;;8.60;6.37;;;;;;;-1.51;100.00;96364.56;5013625;28;20200;-67
2020/12/30 00:22:18;;;;;;;6.90;6.27;;;;;;;-1.54;100.00;96364.78;5016260;28;20817;-67
2020/12/30 00:24:45;;;;;;;6.57;5.83;;;;;;;-1.52;100.00;96363.72;5008678;28;20212;-67
2020/12/30 00:27:13;;;;;;;6.70;6.10;;;;;;;-1.56;100.00;96371.91;5010116;28;20216;-67
2020/12/30 00:29:41;;;;;;;7.40;6.70;;;;;;;-1.57;100.00;96365.91;5010861;28;20208;-67
2020/12/30 00:32:09;;;;;;;7.00;6.20;;;;;;;-1.61;100.00;96361.91;5020121;28;20470;-67
2020/12/30 00:34:37;;;;;;;7.23;6.53;;;;;;;-1.71;100.00;96364.44;5015844;28;20204;-67
2020/12/30 00:37:04;;;;;;;7.50;6.83;;;;;;;-1.57;100.00;96365.91;5020686;28;20237;-67
2020/12/30 00:39:31;;;;;;;6.23;5.73;;;;;;;-1.53;100.00;96369.03;5016847;28;20212;-67
2020/12/30 00:41:58;;;;;;;6.03;5.47;;;;;;;-1.47;100.00;96369.34;5019746;28;20239;-67
2020/12/30 00:44:26;;;;;;;5.80;5.30;;;;;;;-1.50;100.00;96371.41;5016301;28;20462;-67
2020/12/30 00:46:53;;;;;;;7.47;6.10;;;;;;;-1.43;100.00;96374.28;5020106;28;20204;-68
2020/12/30 00:49:20;;;;;;;5.70;5.20;;;;;;;-1.53;100.00;96375.06;5019757;28;20221;-68
2020/12/30 00:51:51;;;;;;;5.80;5.30;;;;;;;-1.36;100.00;96376.25;5014423;28;20460;-67
2020/12/30 00:54:18;;;;;;;6.47;5.50;;;;;;;-1.39;100.00;96379.13;5015447;28;20212;-67
2020/12/30 00:56:46;;;;;;;6.63;5.77;;;;;;;-1.36;100.00;96373.66;5020158;28;20204;-67
2020/12/30 00:59:13;;;;;;;6.00;5.50;;;;;;;-1.39;100.00;96373.91;5019634;28;20812;-68
2020/12/30 01:01:41;;;;;;;5.63;5.03;;;;;;;-1.46;100.00;96371.00;5017201;28;20796;-67
2020/12/30 01:04:08;;;;;;;5.37;4.63;;;;;;;-1.32;100.00;96382.03;5020650;28;20201;-66
2020/12/30 01:06:36;;;;;;;4.90;4.27;;;;;;;-1.37;100.00;96378.97;5016178;28;20205;-67
2020/12/30 01:09:05;;;;;;;6.20;4.53;;;;;;;-1.55;100.00;96379.56;5016847;28;20227;-67
2020/12/30 01:11:32;;;;;;;5.67;5.17;;;;;;;-1.55;100.00;96379.56;5021165;28;20463;-67
2020/12/30 01:13:59;;;;;;;5.80;4.63;;;;;;;-1.54;100.00;96386.41;5017223;28;20466;-68
2020/12/30 01:16:26;;;;;;;5.03;4.53;;;;;;;-1.49;100.00;96375.66;5019530;28;20447;-68
2020/12/30 01:18:54;;;;;;;5.70;5.20;;;;;;;-1.49;100.00;96375.66;5018705;28;20504;-68
2020/12/30 01:21:21;;;;;;;5.70;4.83;;;;;;;-1.38;100.00;96380.75;5015726;28;20243;-68
2020/12/30 01:23:48;;;;;;;5.47;4.97;;;;;;;-1.41;100.00;96386.22;5013633;28;20205;-68
2020/12/30 01:26:15;;;;;;;5.50;4.80;;;;;;;-1.48;100.00;96387.69;5014203;28;20219;-68
2020/12/30 01:28:42;;;;;;;5.37;4.47;;;;;;;-1.47;100.00;96382.34;5016319;28;20220;-68
2020/12/30 01:31:09;;;;;;;5.03;4.43;;;;;;;-1.29;100.00;96389.56;5016538;28;20632;-68
2020/12/30 01:33:36;;;;;;;5.63;4.10;;;;;;;-1.33;100.00;96389.00;5016397;28;20212;-67
2020/12/30 01:36:05;;;;;;;4.23;3.93;;;;;;;-1.31;100.00;96381.09;5015909;28;20451;-68
2020/12/30 01:38:32;;;;;;;4.40;4.10;;;;;;;-1.43;100.00;96390.72;5017914;28;20224;-68
2020/12/30 01:41:00;;;;;;;4.30;4.00;;;;;;;-1.48;100.00;96391.09;5016362;28;20204;-68
2020/12/30 01:43:27;;;;;;;4.70;4.30;;;;;;;-1.43;100.00;96388.13;5010383;28;20220;-68
2020/12/30 01:45:54;;;;;;;4.43;4.07;;;;;;;-1.36;100.00;96389.25;5011636;28;20212;-67
2020/12/30 01:48:23;;;;;;;3.50;3.30;;;;;;;-1.28;100.00;96390.38;5015613;28;20213;-68
2020/12/30 01:50:51;;;;;;;4.00;3.57;;;;;;;-1.30;100.00;96387.94;5014682;28;20703;-67
2020/12/30 01:53:19;;;;;;;4.00;3.70;;;;;;;-1.45;100.00;96387.44;5013060;28;20224;-67
2020/12/30 01:55:46;;;;;;;4.57;4.13;;;;;;;-1.50;100.00;96398.19;5016275;28;20208;-67
2020/12/30 01:58:13;;;;;;;4.53;3.93;;;;;;;-1.51;100.00;96400.94;5016804;28;20233;-67
2020/12/30 02:00:41;;;;;;;9.33;5.37;;;;;;;-1.62;100.00;96407.84;5016625;28;20676;-67
2020/12/30 02:03:09;;;;;;;10.63;8.23;;;;;;;-1.71;100.00;96402.56;5018527;28;20798;-67
2020/12/30 02:05:37;;;;;;;6.97;6.10;;;;;;;-1.73;100.00;96392.31;5014642;28;20304;-67
2020/12/30 02:08:17;;;;;;;5.87;5.10;;;;;;;-1.73;100.00;96397.50;5017525;28;20200;-67
2020/12/30 02:10:45;;;;;;;5.77;5.17;;;;;;;-1.60;100.00;96392.94;5015266;28;20208;-67
2020/12/30 02:13:12;;;;;;;6.00;4.53;;;;;;;-1.58;100.00;96395.41;5016883;28;20225;-67
2020/12/30 02:15:39;;;;;;;5.77;5.17;;;;;;;-1.70;100.00;96396.44;5017004;28;20204;-66
2020/12/30 02:18:06;;;;;;;4.57;4.17;;;;;;;-1.77;100.00;96402.13;5017936;28;20225;-68
2020/12/30 02:20:33;;;;;;;4.70;4.40;;;;;;;-1.74;100.00;96403.66;5018576;28;20509;-67
2020/12/30 02:23:03;;;;;;;5.87;5.17;;;;;;;-1.74;100.00;96401.06;5015648;28;20591;-66
2020/12/30 02:25:31;;;;;;;4.87;4.57;;;;;;;-1.77;100.00;96406.50;5015620;28;20205;-68
2020/12/30 02:27:58;;;;;;;6.13;5.53;;;;;;;-1.78;100.00;96404.84;5017998;28;20208;-68
2020/12/30 02:30:25;;;;;;;4.90;4.40;;;;;;;-1.81;100.00;96411.13;5017549;28;20672;-68
2020/12/30 02:32:52;;;;;;;5.60;4.97;;;;;;;-1.89;100.00;96405.72;5017235;28;20659;-68
2020/12/30 02:35:22;;;;;;;5.60;5.10;;;;;;;-1.96;100.00;96407.19;5017450;28;20388;-68
2020/12/30 02:37:49;;;;;;;5.53;5.10;;;;;;;-2.13;100.00;96411.94;5010308;28;20526;-68
2020/12/30 02:40:16;;;;;;;7.50;5.13;;;;;;;-2.22;100.00;96410.09;5016426;28;20227;-67
2020/12/30 02:42:44;;;;;;;4.83;4.43;;;;;;;-2.33;100.00;96411.78;5012159;28;20232;-67
2020/12/30 02:45:11;;;;;;;5.10;4.70;;;;;;;-2.46;100.00;96421.50;5018726;28;20213;-67
2020/12/30 02:47:38;;;;;;;4.77;4.37;;;;;;;-2.57;100.00;96408.53;5016326;28;20459;-67
2020/12/30 02:50:05;;;;;;;5.07;4.67;;;;;;;-2.42;100.00;96409.94;5011371;28;20304;-68
2020/12/30 02:52:32;;;;;;;4.70;4.40;;;;;;;-2.44;100.00;96413.59;5011959;28;20228;-67
2020/12/30 02:54:59;;;;;;;6.03;5.43;;;;;;;-2.51;100.00;96419.28;5013377;28;20444;-67
2020/12/30 02:57:26;;;;;;;4.93;4.53;;;;;;;-2.72;100.00;96410.56;5019102;28;20449;-68
2020/12/30 02:59:56;;;;;;;6.03;5.43;;;;;;;-2.82;100.00;96416.47;5014497;28;20209;-68
2020/12/30 03:02:24;;;;;;;4.40;4.07;;;;;;;-2.89;100.00;96423.09;5013234;28;20874;-68
2020/12/30 03:04:52;;;;;;;5.30;4.80;;;;;;;-2.84;100.00;96414.94;5018156;28;20439;-68
2020/12/30 03:07:19;;;;;;;6.10;5.33;;;;;;;-2.94;100.00;96422.63;5010924;28;20200;-68
2020/12/30 03:09:46;;;;;;;6.80;4.93;;;;;;;-3.06;100.00;96430.38;5014105;28;20204;-67
2020/12/30 03:12:14;;;;;;;6.53;5.93;;;;;;;-3.12;100.00;96424.84;5015442;28;20234;-67
2020/12/30 03:14:41;;;;;;;5.57;5.07;;;;;;;-2.97;100.00;96422.84;5015760;28;20447;-67
2020/12/30 03:17:09;;;;;;;5.53;5.03;;;;;;;-3.07;100.00;96428.72;5018271;28;20447;-67
2020/12/30 03:19:36;;;;;;;5.27;4.77;;;;;;;-3.13;100.00;96429.19;5017271;28;20497;-67
2020/12/30 03:22:03;;;;;;;4.83;4.53;;;;;;;-3.18;100.00;96438.28;5015194;28;20497;-67
2020/12/30 03:24:30;;;;;;;5.47;4.80;;;;;;;-3.23;100.00;96429.06;5018228;28;20216;-67
2020/12/30 03:26:57;;;;;;;5.63;5.23;;;;;;;-3.17;100.00;96432.97;5015483;28;20201;-68
2020/12/30 03:29:24;;;;;;;5.23;4.83;;;;;;;-2.99;100.00;96440.31;5015277;28;20446;-67
2020/12/30 03:31:51;;;;;;;7.00;5.23;;;;;;;-2.85;100.00;96429.69;5016431;28;20232;-67
2020/12/30 03:34:19;;;;;;;5.37;4.97;;;;;;;-3.03;100.00;96439.69;5018588;28;20572;-67
2020/12/30 03:36:46;;;;;;;5.30;4.90;;;;;;;-3.18;100.00;96433.91;5021742;28;20474;-68
2020/12/30 03:39:13;;;;;;;7.63;6.93;;;;;;;-3.30;100.00;96427.09;5022313;28;20224;-68
2020/12/30 03:41:40;;;;;;;7.37;6.67;;;;;;;-3.35;100.00;96430.00;5017205;28;20467;-67
2020/12/30 03:44:07;;;;;;;5.17;4.73;;;;;;;-3.33;100.00;96427.31;5022623;28;20454;-67
2020/12/30 03:46:34;;;;;;;6.30;5.30;;;;;;;-3.42;100.00;96431.41;5013849;28;20447;-68
2020/12/30 03:49:01;;;;;;;5.63;5.13;;;;;;;-3.39;100.00;96436.38;5014729;28;20810;-68
2020/12/30 03:51:29;;;;;;;4.83;4.47;;;;;;;-3.40;100.00;96439.91;5016119;28;20848;-68
2020/12/30 03:53:55;;;;;;;5.23;4.87;;;;;;;-3.43;100.00;96443.53;5013635;28;20803;-68
2020/12/30 03:56:22;;;;;;;6.23;4.83;;;;;;;-3.34;100.00;96444.63;5018293;28;20447;-68
2020/12/30 03:58:49;;;;;;;5.33;4.70;;;;;;;-3.31;100.00;96441.78;5016627;28;20478;-68
2020/12/30 04:01:25;;;;;;;5.93;5.40;;;;;;;-3.38;100.00;96441.44;5017936;28;20458;-67
2020/12/30 04:03:52;;;;;;;6.63;5.87;;;;;;;-3.33;100.00;96441.06;5014579;28;20461;-68
2020/12/30 04:06:20;;;;;;;6.77;5.53;;;;;;;-3.37;100.00;96437.06;5018832;28;20510;-68
2020/12/30 04:08:47;;;;;;;6.07;5.67;;;;;;;-3.42;100.00;96441.78;5019232;28;20815;-69
2020/12/30 04:11:15;;;;;;;5.17;4.77;;;;;;;-3.52;100.00;96447.66;5018977;28;20213;-68
2020/12/30 04:13:42;;;;;;;5.80;5.40;;;;;;;-3.61;100.00;96440.53;5017346;28;20443;-68
2020/12/30 04:16:09;;;;;;;5.83;5.27;;;;;;;-3.59;100.00;96459.41;5016374;28;20602;-68
2020/12/30 04:18:37;;;;;;;6.47;5.87;;;;;;;-3.70;100.00;96460.19;5017817;28;20474;-68
2020/12/30 04:21:03;;;;;;;6.23;5.73;;;;;;;-3.64;100.00;96464.91;5017264;28;20439;-68
2020/12/30 04:23:30;;;;;;;7.43;5.50;;;;;;;-3.63;100.00;96461.38;5019692;28;20451;-69
2020/12/30 04:25:58;;;;;;;6.07;5.57;;;;;;;-3.63;100.00;96463.13;5016327;28;20462;-68
2020/12/30 04:28:25;;;;;;;6.87;6.27;;;;;;;-3.71;100.00;96470.66;5017788;28;20879;-68
2020/12/30 04:30:52;;;;;;;6.97;6.27;;;;;;;-3.75;100.00;96464.03;5019946;28;20975;-68
2020/12/30 04:33:19;;;;;;;7.63;6.90;;;;;;;-3.65;100.00;96465.00;5021308;28;20474;-68
2020/12/30 04:35:46;;;;;;;6.93;6.33;;;;;;;-3.77;100.00;96471.94;5019139;28;20442;-68
2020/12/30 04:38:14;;;;;;;7.70;7.03;;;;;;;-3.85;100.00;96469.91;5017405;28;20224;-68
2020/12/30 04:40:41;;;;;;;7.87;7.17;;;;;;;-3.88;100.00;96475.31;5019217;28;20211;-67
2020/12/30 04:43:10;;;;;;;7.30;6.43;;;;;;;-3.91;100.00;96472.94;5017018;28;20481;-68
2020/12/30 04:45:38;;;;;;;7.53;6.87;;;;;;;-3.97;100.00;96473.41;5014516;28;20980;-68
2020/12/30 04:48:05;;;;;;;8.53;7.73;;;;;;;-3.76;100.00;96475.34;5023128;28;20472;-68
2020/12/30 04:50:32;;;;;;;7.93;7.23;;;;;;;-3.86;100.00;96476.03;5022093;28;20466;-67
2020/12/30 04:52:59;;;;;;;8.33;7.53;;;;;;;-3.73;100.00;96465.59;5027077;28;20478;-67
2020/12/30 04:55:29;;;;;;;7.17;6.47;;;;;;;-3.92;100.00;96468.69;5022624;28;20985;-68
2020/12/30 04:58:04;;;;;;;7.17;6.50;;;;;;;-3.79;100.00;96466.88;5026863;28;20592;-68
2020/12/30 05:00:34;;;;;;;7.00;6.40;;;;;;;-3.71;100.00;96470.66;5022700;28;20435;-68
2020/12/30 05:03:06;;;;;;;7.60;6.90;;;;;;;-3.72;100.00;96474.19;5019284;28;20462;-67
2020/12/30 05:05:34;;;;;;;7.40;6.70;;;;;;;-3.78;100.00;96472.88;5022168;28;20455;-68
2020/12/30 05:08:01;;;;;;;7.03;6.43;;;;;;;-3.88;100.00;96479.66;5014756;28;20758;-68
2020/12/30 05:10:29;;;;;;;7.87;7.17;;;;;;;-3.76;100.00;96483.09;5013918;28;20455;-67
2020/12/30 05:12:56;;;;;;;7.90;7.20;;;;;;;-3.76;100.00;96489.13;5024207;28;20709;-68
2020/12/30 05:15:23;;;;;;;7.97;7.27;;;;;;;-3.64;100.00;96500.31;5024081;28;20447;-68
2020/12/30 05:17:53;;;;;;;8.70;7.33;;;;;;;-3.57;100.00;96501.56;5022558;28;20945;-68
2020/12/30 05:20:20;;;;;;;7.97;7.33;;;;;;;-3.57;100.00;96505.91;5019466;28;20523;-68
2020/12/30 05:22:47;;;;;;;8.13;6.93;;;;;;;-3.48;100.00;96510.38;5012888;28;21001;-68
2020/12/30 05:25:15;;;;;;;8.73;8.07;;;;;;;-3.48;100.00;96520.75;5018954;28;20797;-67
2020/12/30 05:27:43;;;;;;;12.30;11.13;;;;;;;-3.41;100.00;96514.22;5023657;28;20508;-68
2020/12/30 05:30:11;;;;;;;11.27;10.17;;;;;;;-3.28;100.00;96515.88;5026374;28;20442;-67
2020/12/30 05:32:38;;;;;;;11.73;10.57;;;;;;;-3.20;100.00;96510.94;5018945;28;20479;-67
2020/12/30 05:35:06;;;;;;;11.23;10.33;;;;;;;-3.17;100.00;96515.09;5013866;28;20447;-67
2020/12/30 05:37:35;;;;;;;11.27;10.27;;;;;;;-3.18;100.00;96518.63;5016572;28;20979;-68
2020/12/30 05:40:02;;;;;;;11.67;10.57;;;;;;;-3.15;100.00;96521.78;5013474;28;20828;-68
2020/12/30 05:42:29;;;;;;;9.70;8.90;;;;;;;-3.11;100.00;96525.81;5016896;28;20471;-68
2020/12/30 05:44:56;;;;;;;8.90;8.10;;;;;;;-3.13;100.00;96527.69;5017380;28;20449;-68
2020/12/30 05:47:24;;;;;;;8.93;8.20;;;;;;;-2.99;100.00;96531.03;5019694;28;20460;-68
2020/12/30 05:49:53;;;;;;;7.97;7.30;;;;;;;-2.99;100.00;96538.81;5021693;28;20466;-67
2020/12/30 05:52:22;;;;;;;9.03;8.23;;;;;;;-2.97;100.00;96540.31;5022060;28;20483;-67
2020/12/30 05:54:52;;;;;;;8.73;7.07;;;;;;;-2.94;100.00;96541.88;5021313;28;20586;-67
2020/12/30 05:57:26;;;;;;;8.00;7.20;;;;;;;-2.88;100.00;96549.19;5017844;28;20208;-68
2020/12/30 05:59:56;;;;;;;8.60;7.20;;;;;;;-2.95;100.00;96545.41;5017657;28;20479;-67
2020/12/30 06:02:25;;;;;;;8.03;7.20;;;;;;;-2.94;100.00;96550.47;5017538;28;20231;-68
2020/12/30 06:04:53;;;;;;;10.33;8.10;;;;;;;-2.86;100.00;96565.44;5019340;28;20452;-67
2020/12/30 06:07:21;;;;;;;10.37;7.73;;;;;;;-2.75;100.00;96564.66;5021392;28;20617;-67
2020/12/30 06:09:53;;;;;;;9.33;7.70;;;;;;;-2.56;100.00;96571.00;5023199;28;20215;-67
2020/12/30 06:12:26;;;;;;;7.90;7.13;;;;;;;-2.61;100.00;96573.97;5016719;28;20502;-70
2020/12/30 06:14:55;;;;;;;7.63;6.93;;;;;;;-2.60;100.00;96574.78;5022946;28;20839;-68
2020/12/30 06:17:27;;;;;;;8.47;7.67;;;;;;;-2.67;100.00;96574.41;5021558;28;20208;-68
2020/12/30 06:19:54;;;;;;;7.80;7.13;;;;;;;-2.68;100.00;96565.81;5014649;28;20231;-66
2020/12/30 06:22:27;;;;;;;9.47;7.10;;;;;;;-2.70;100.00;96570.31;5016077;28;20722;-67
2020/12/30 06:24:56;;;;;;;8.37;7.53;;;;;;;-2.67;100.00;96584.78;5017504;28;20208;-67
2020/12/30 06:27:25;;;;;;;9.60;8.63;;;;;;;-2.60;100.00;96580.81;5016118;28;20212;-66
2020/12/30 06:29:55;;;;;;;7.93;7.33;;;;;;;-2.60;100.00;96587.75;5016599;28;20565;-67
2020/12/30 06:32:34;;;;;;;8.00;7.30;;;;;;;-2.58;100.00;96589.31;5018427;28;20468;-67
2020/12/30 06:35:02;;;;;;;6.77;6.27;;;;;;;-2.50;100.00;96596.47;5012776;28;20474;-67
2020/12/30 06:37:33;;;;;;;7.57;6.83;;;;;;;-2.45;100.00;96593.56;5016172;28;20212;-69
2020/12/30 06:40:33;;;;;;;10.10;7.23;;;;;;;-2.56;100.00;96602.16;5015654;28;20223;-68
2020/12/30 06:43:01;;;;;;;8.57;7.70;;;;;;;-2.39;100.00;96611.25;5016758;28;20232;-67
2020/12/30 06:45:52;;;;;;;8.03;7.20;;;;;;;-2.29;100.00;96613.97;5016407;28;20208;-69
2020/12/30 06:48:20;;;;;;;9.40;8.27;;;;;;;-2.37;100.00;96625.75;5008376;28;20201;-70
2020/12/30 06:50:48;;;;;;;8.27;7.57;;;;;;;-2.36;100.00;96618.78;5016477;28;20636;-69
2020/12/30 06:53:34;;;;;;;8.37;7.67;;;;;;;-2.35;100.00;96620.44;5017905;28;20231;-69
2020/12/30 06:56:02;;;;;;;8.37;7.70;;;;;;;-2.35;100.00;96621.28;5016730;28;20496;-69
2020/12/30 06:58:51;;;;;;;10.70;9.23;;;;;;;-2.31;100.00;96613.25;5016971;28;20228;-69
2020/12/30 07:01:19;;;;;;;11.47;10.17;;;;;;;-2.33;100.00;96622.00;5012134;28;20216;-68
2020/12/30 07:03:47;;;;;;;8.77;7.97;;;;;;;-2.43;100.00;96628.84;5020191;28;20464;-70
2020/12/30 07:06:31;;;;;;;7.37;6.77;;;;;;;-2.26;100.00;96630.13;5017039;28;20212;-69
2020/12/30 07:09:01;;;;;;;8.13;7.33;;;;;;;-2.26;100.00;96635.34;5018800;28;20560;-68
2020/12/30 07:11:38;;;;;;;7.87;7.00;;;;;;;-2.25;100.00;96631.78;5017123;28;20220;-69
2020/12/30 07:14:06;;;;;;;7.23;6.63;;;;;;;-2.20;100.00;96639.22;5015975;28;20457;-69
2020/12/30 07:16:35;;;;;;;7.33;6.73;;;;;;;-2.31;100.00;96640.03;5021691;28;20592;-69
2020/12/30 07:19:03;;;;;;;8.17;7.47;;;;;;;-2.41;100.00;96645.09;5023555;28;20501;-69
2020/12/30 07:21:30;;;;;;;9.90;9.00;;;;;;;-2.35;100.00;96648.97;5018104;28;20471;-68
2020/12/30 07:23:57;;;;;;;8.37;7.77;;;;;;;-2.44;100.00;96652.28;5013057;28;20459;-69
2020/12/30 07:26:26;;;;;;;8.43;7.70;;;;;;;-2.55;100.00;96658.28;5007522;28;20470;-68
2020/12/30 07:28:53;;;;;;;8.83;8.10;;;;;;;-2.60;100.00;96662.97;5010068;28;20449;-67
2020/12/30 07:31:21;;;;;;;24.07;13.50;;;;;;;-2.52;100.00;96660.63;5014711;28;20315;-68
2020/12/30 07:33:48;;;;;;;24.77;16.97;;;;;;;-2.39;100.00;96657.94;5017195;28;20212;-67
2020/12/30 07:36:15;;;;;;;12.63;11.23;;;;;;;-2.33;100.00;96660.91;5012497;28;20615;-68
2020/12/30 07:38:42;;;;;;;10.17;9.07;;;;;;;-2.25;100.00;96654.31;5012743;28;20220;-67
2020/12/30 07:41:09;;;;;;;10.57;9.47;;;;;;;-2.14;100.00;96659.50;5016750;28;20213;-67
2020/12/30 07:43:48;;;;;;;10.80;9.60;;;;;;;-2.25;100.00;96662.94;5019627;28;20223;-67
2020/12/30 07:46:19;;;;;;;11.50;10.33;;;;;;;-2.15;100.00;96672.59;5022408;28;20630;-67
2020/12/30 07:48:46;;;;;;;10.70;9.70;;;;;;;-1.95;100.00;96669.28;5017442;28;20688;-67
2020/12/30 07:51:13;;;;;;;15.90;10.10;;;;;;;-1.71;100.00;96670.09;5008613;28;20209;-68
2020/12/30 07:53:40;;;;;;;11.57;10.07;;;;;;;-1.85;100.00;96674.63;5015536;28;20449;-67
2020/12/30 07:56:22;;;;;;;11.53;9.10;;;;;;;-1.75;100.00;96674.72;5009876;28;20451;-66
2020/12/30 07:58:49;;;;;;;8.97;8.10;;;;;;;-1.74;100.00;96676.38;5009161;28;20221;-67
2020/12/30 08:01:18;;;;;;;8.90;8.17;;;;;;;-1.61;100.00;96671.06;5008253;28;20450;-67
2020/12/30 08:03:45;;;;;;;10.53;8.77;;;;;;;-1.52;100.00;96677.28;5019517;28;20442;-68
2020/12/30 08:06:13;;;;;;;10.57;9.57;;;;;;;-1.61;100.00;96682.25;5017913;28;20213;-67
2020/12/30 08:08:44;;;;;;;11.33;10.23;;;;;;;-1.76;100.00;96689.47;5018149;28;20745;-67
2020/12/30 08:11:11;;;;;;;12.23;11.03;;;;;;;-1.77;100.00;96684.41;5016680;28;20467;-68
2020/12/30 08:13:41;;;;;;;12.37;11.17;;;;;;;-1.74;100.00;96684.19;5021296;28;20295;-67
2020/12/30 08:16:13;;;;;;;11.47;10.27;;;;;;;-1.70;100.00;96689.97;5017274;28;20447;-67
2020/12/30 08:18:50;;;;;;;12.53;11.13;;;;;;;-1.72;100.00;96699.63;5015556;28;20497;-67
2020/12/30 08:21:22;;;;;;;13.10;11.73;;;;;;;-1.62;100.00;96700.59;5022999;28;20196;-68
2020/12/30 08:23:50;;;;;;;11.73;10.60;;;;;;;-1.77;100.00;96705.19;5022444;28;20212;-68
2020/12/30 08:26:17;;;;;;;12.30;10.00;;;;;;;-1.75;100.00;96704.13;5018553;28;20466;-68
2020/12/30 08:28:44;;;;;;;12.13;10.47;;;;;;;-1.56;100.00;96709.66;5023025;28;20232;-67
2020/12/30 08:31:16;;;;;;;9.57;8.67;;;;;;;-1.54;100.00;96710.34;5023652;28;20493;-68
2020/12/30 08:34:13;;;;;;;10.10;9.20;;;;;;;-1.51;100.00;96713.56;5021517;28;20490;-70
2020/12/30 08:36:47;;;;;;;10.23;9.23;;;;;;;-1.45;100.00;96712.25;5026281;28;20446;-68
2020/12/30 08:39:16;;;;;;;10.83;9.83;;;;;;;-1.39;100.00;96718.72;5021533;28;20616;-69
2020/12/30 08:41:48;;;;;;;10.63;9.53;;;;;;;-1.15;100.00;96715.16;5021762;28;20251;-67
2020/12/30 08:44:17;;;;;;;12.57;10.93;;;;;;;-1.12;100.00;96720.94;5018810;28;20600;-69
2020/12/30 08:46:49;;;;;;;10.90;9.87;;;;;;;-1.03;100.00;96724.56;5018794;28;20205;-67
2020/12/30 08:49:19;;;;;;;12.50;11.20;;;;;;;-1.13;100.00;96721.06;5018573;28;20234;-69
2020/12/30 08:51:46;;;;;;;11.87;10.77;;;;;;;-1.02;100.00;96724.47;5014737;28;20248;-68
2020/12/30 08:54:17;;;;;;;11.40;10.40;;;;;;;-1.13;100.00;96721.06;5017493;28;20439;-67
2020/12/30 08:56:45;;;;;;;12.13;11.00;;;;;;;-1.04;100.00;96722.91;5017655;28;20207;-68
2020/12/30 08:59:20;;;;;;;13.00;11.60;;;;;;;-0.59;100.00;96717.53;5013372;28;20228;-68
2020/12/30 09:01:48;;;;;;;12.30;11.00;;;;;;;-0.63;100.00;96723.13;5015420;28;20228;-69
2020/12/30 09:04:15;;;;;;;14.33;11.20;;;;;;;-0.49;100.00;96717.63;5017693;28;20228;-69
2020/12/30 09:06:50;;;;;;;12.80;11.47;;;;;;;-0.53;100.00;96726.63;5017361;28;20597;-69
2020/12/30 09:09:19;;;;;;;11.40;10.40;;;;;;;-0.48;100.00;96727.06;5018538;28;20218;-69
2020/12/30 09:11:47;;;;;;;11.13;10.13;;;;;;;-0.39;100.00;96725.50;5013939;28;20383;-69
2020/12/30 09:14:16;;;;;;;11.00;10.03;;;;;;;-0.25;100.00;96728.72;5017568;28;20211;-69
2020/12/30 09:16:55;;;;;;;10.37;9.47;;;;;;;-0.03;100.00;96732.97;5018266;28;20209;-68
2020/12/30 09:19:22;;;;;;;10.73;9.77;;;;;;;0.15;100.00;96738.41;5017145;28;20232;-69
2020/12/30 09:21:49;;;;;;;10.50;9.60;;;;;;;0.32;100.00;96731.78;5021311;28;20232;-68
2020/12/30 09:24:16;;;;;;;10.27;9.27;;;;;;;0.49;100.00;96734.75;5015332;28;20209;-69
2020/12/30 09:26:43;;;;;;;10.00;9.20;;;;;;;0.48;100.00;96736.50;5017924;28;20200;-68
2020/12/30 09:29:18;;;;;;;9.57;8.63;;;;;;;0.51;100.00;96741.47;5014869;28;20205;-68
2020/12/30 09:31:53;;;;;;;10.47;9.57;;;;;;;0.68;100.00;96742.63;5017650;28;20230;-69
2020/12/30 09:34:20;;;;;;;11.63;10.50;;;;;;;0.71;100.00;96741.53;5016525;28;20226;-68
2020/12/30 09:36:55;;;;;;;9.93;8.57;;;;;;;0.88;100.00;96744.44;5015497;28;20204;-67
2020/12/30 09:39:22;;;;;;;12.57;9.77;;;;;;;1.01;100.00;96751.06;5018891;28;20227;-68
2020/12/30 09:41:49;;;;;;;10.40;9.50;;;;;;;1.19;100.00;96742.59;5016158;28;20635;-68
2020/12/30 09:44:16;;;;;;;9.63;8.83;;;;;;;1.33;100.00;96741.38;5017738;28;20672;-69
2020/12/30 09:46:50;;;;;;;10.33;9.27;;;;;;;1.28;100.00;96736.56;5015943;28;20215;-68
2020/12/30 09:49:18;;;;;;;10.60;9.57;;;;;;;1.48;100.00;96746.19;5016291;28;20226;-69
2020/12/30 09:51:45;;;;;;;11.53;10.10;;;;;;;1.64;100.00;96748.25;5013126;28;20340;-69
2020/12/30 09:54:12;;;;;;;10.63;9.50;;;;;;;1.59;100.00;96743.41;5019813;28;20208;-69
2020/12/30 09:56:41;;;;;;;10.63;9.17;;;;;;;1.68;100.00;96753.03;5017716;28;20664;-69
2020/12/30 09:59:08;;;;;;;10.20;9.30;;;;;;;1.66;100.00;96754.16;5015648;28;20233;-68
2020/12/30 10:01:35;;;;;;;9.73;8.73;;;;;;;1.67;100.00;96753.19;5016768;28;20862;-69
2020/12/30 10:04:02;;;;;;;10.20;9.20;;;;;;;1.67;100.00;96746.16;5015705;28;20208;-69
2020/12/30 10:06:32;;;;;;;9.37;8.47;;;;;;;1.68;99.46;96744.38;5018421;28;20209;-68
2020/12/30 10:08:59;;;;;;;10.13;9.33;;;;;;;1.76;98.27;96741.91;5019569;28;20209;-69
2020/12/30 10:11:26;;;;;;;10.17;9.17;;;;;;;1.78;97.01;96747.81;5016474;28;20806;-69
2020/12/30 10:13:53;;;;;;;11.07;9.93;;;;;;;1.71;99.11;96752.78;5018566;28;20230;-69
2020/12/30 10:16:20;;;;;;;11.20;10.13;;;;;;;1.59;98.71;96748.66;5017774;28;20218;-70
2020/12/30 10:18:47;;;;;;;10.67;9.67;;;;;;;1.67;98.81;96756.59;5015773;28;20620;-69
2020/12/30 10:21:14;;;;;;;9.63;8.73;;;;;;;1.69;98.59;96753.88;5017274;28;20272;-68
2020/12/30 10:23:42;;;;;;;9.60;8.80;;;;;;;1.88;96.81;96756.44;5016300;28;20205;-68
2020/12/30 10:26:09;;;;;;;10.43;9.40;;;;;;;1.81;96.39;96751.94;5016158;28;20372;-70
2020/12/30 10:28:38;;;;;;;9.93;8.97;;;;;;;2.03;96.78;96749.00;5016056;28;20251;-67
2020/12/30 10:31:05;;;;;;;9.60;8.80;;;;;;;1.97;96.50;96751.38;5017727;28;20223;-68
2020/12/30 10:33:33;;;;;;;9.13;7.93;;;;;;;2.02;96.67;96754.38;5019241;28;20646;-69
2020/12/30 10:35:59;;;;;;;9.50;8.27;;;;;;;2.25;94.47;96749.66;5020239;28;20208;-69
2020/12/30 10:38:26;;;;;;;9.77;8.87;;;;;;;2.22;94.61;96749.94;5018998;28;20204;-68
2020/12/30 10:40:54;;;;;;;9.90;9.10;;;;;;;2.21;96.38;96758.75;5015643;28;20200;-68
2020/12/30 10:43:21;;;;;;;8.83;8.13;;;;;;;2.46;93.70;96751.22;5018303;28;20772;-68
2020/12/30 10:45:48;;;;;;;11.60;9.40;;;;;;;2.55;93.54;96747.75;5017931;28;20212;-69
2020/12/30 10:48:15;;;;;;;9.37;8.40;;;;;;;2.67;91.70;96747.56;5017529;28;20621;-69
2020/12/30 10:50:43;;;;;;;8.33;7.60;;;;;;;2.68;91.18;96752.66;5015495;28;20300;-70
2020/12/30 10:53:10;;;;;;;8.83;8.13;;;;;;;2.69;91.53;96751.69;5017622;28;20232;-68
2020/12/30 10:55:37;;;;;;;9.27;8.53;;;;;;;2.76;93.89;96749.31;5013879;28;20215;-68
2020/12/30 10:58:05;;;;;;;12.50;10.10;;;;;;;2.85;91.59;96751.06;5015970;28;20208;-68
2020/12/30 11:00:32;;;;;;;13.00;10.73;;;;;;;2.98;92.28;96752.50;5016252;28;20234;-69
2020/12/30 11:02:59;;;;;;;11.20;10.10;;;;;;;2.96;90.41;96754.44;5014732;28;20232;-67
2020/12/30 11:05:26;;;;;;;11.17;10.07;;;;;;;3.00;89.32;96750.56;5012787;28;20729;-69
2020/12/30 11:07:53;;;;;;;10.70;9.80;;;;;;;2.98;89.07;96749.88;5017252;28;20691;-67
2020/12/30 11:10:20;;;;;;;11.37;9.70;;;;;;;2.88;89.46;96750.78;5017051;28;20728;-69
2020/12/30 11:12:47;;;;;;;9.10;8.20;;;;;;;3.08;87.88;96749.84;5018539;28;20220;-69
2020/12/30 11:15:15;;;;;;;8.67;7.87;;;;;;;2.98;89.42;96755.94;5014801;28;20209;-68
2020/12/30 11:17:42;;;;;;;8.60;7.73;;;;;;;2.98;88.97;96744.66;5014548;28;20220;-68
2020/12/30 11:20:11;;;;;;;8.20;7.50;;;;;;;3.11;89.05;96755.59;5013947;28;20592;-68
2020/12/30 11:22:38;;;;;;;8.20;7.57;;;;;;;3.04;88.50;96751.91;5016574;28;20220;-67
2020/12/30 11:25:05;;;;;;;8.20;7.50;;;;;;;3.06;88.14;96754.41;5015179;28;20204;-67
2020/12/30 11:27:32;;;;;;;8.10;7.30;;;;;;;3.13;88.95;96765.91;5013587;28;20209;-68
2020/12/30 11:29:59;;;;;;;8.53;7.83;;;;;;;3.21;89.94;96749.44;5013946;28;20204;-67